createdAt,value
2023-06-30T00:00:09.081Z,95714.00
2023-06-30T00:01:10.178Z,95716.00
2023-06-30T00:02:10.155Z,95712.00
2023-06-30T00:03:10.331Z,95710.00
2023-06-30T00:04:10.217Z,95712.00
2023-06-30T00:05:10.194Z,95712.00
2023-06-30T00:06:10.197Z,95712.00
2023-06-30T00:07:09.257Z,95714.00
2023-06-30T00:08:10.259Z,95712.00
2023-06-30T00:09:09.267Z,95710.00
2023-06-30T00:10:09.251Z,95712.00
2023-06-30T00:11:10.319Z,95714.00
2023-06-30T00:12:10.265Z,95716.00
2023-06-30T00:13:10.266Z,95718.00
2023-06-30T00:14:10.290Z,95720.00
2023-06-30T00:15:10.300Z,95720.00
2023-06-30T00:16:10.305Z,95724.00
2023-06-30T00:17:09.271Z,95722.00
2023-06-30T00:18:09.320Z,95724.00
2023-06-30T00:19:10.272Z,95726.00
2023-06-30T00:20:09.294Z,95726.00
2023-06-30T00:21:09.292Z,95728.00
2023-06-30T00:22:10.277Z,95726.00
2023-06-30T00:23:09.347Z,95726.00
2023-06-30T00:24:10.257Z,95726.00
2023-06-30T00:25:10.905Z,95726.00
2023-06-30T00:26:09.240Z,95726.00
2023-06-30T00:27:10.253Z,95726.00
2023-06-30T00:28:10.231Z,95728.00
2023-06-30T00:29:10.248Z,95726.00
2023-06-30T00:30:10.259Z,95720.00
2023-06-30T00:31:10.265Z,95718.00
2023-06-30T00:32:09.206Z,95724.00
2023-06-30T00:33:10.315Z,95722.00
2023-06-30T00:34:10.190Z,95718.00
2023-06-30T00:35:10.193Z,95718.00
2023-06-30T00:36:09.184Z,95726.00
2023-06-30T00:37:10.190Z,95720.00
2023-06-30T00:38:10.196Z,95720.00
2023-06-30T00:39:10.200Z,95720.00
2023-06-30T00:40:10.162Z,95722.00
2023-06-30T00:41:10.159Z,95722.00
2023-06-30T00:42:09.188Z,95724.00
2023-06-30T00:43:10.157Z,95724.00
2023-06-30T00:44:09.146Z,95722.00
2023-06-30T00:45:09.174Z,95722.00
2023-06-30T00:46:10.150Z,95720.00
2023-06-30T00:47:09.197Z,95718.00
2023-06-30T00:48:10.115Z,95718.00
2023-06-30T00:49:10.111Z,95718.00
2023-06-30T00:50:09.101Z,95720.00
2023-06-30T00:51:09.104Z,95724.00
2023-06-30T00:52:09.125Z,95726.00
2023-06-30T00:53:09.081Z,95728.00
2023-06-30T00:54:09.107Z,95724.00
2023-06-30T00:55:09.070Z,95722.00
2023-06-30T00:56:09.147Z,95720.00
2023-06-30T00:57:10.066Z,95718.00
2023-06-30T00:58:10.102Z,95716.00
2023-06-30T00:59:09.038Z,95716.00
2023-06-30T01:00:10.049Z,95712.00
2023-06-30T01:01:10.034Z,95712.00
2023-06-30T01:02:10.107Z,95714.00
2023-06-30T01:03:10.100Z,95716.00
2023-06-30T01:04:10.138Z,95716.00
2023-06-30T01:05:09.007Z,95712.00
2023-06-30T01:06:08.996Z,95710.00
2023-06-30T01:07:10.014Z,95707.00
2023-06-30T01:08:09.994Z,95705.00
2023-06-30T01:09:09.991Z,95703.00
2023-06-30T01:10:09.997Z,95699.00
2023-06-30T01:11:09.965Z,95699.00
2023-06-30T01:12:08.951Z,95697.00
2023-06-30T01:13:09.945Z,95697.00
2023-06-30T01:14:08.947Z,95699.00
2023-06-30T01:15:08.931Z,95701.00
2023-06-30T01:16:08.945Z,95701.00
2023-06-30T01:17:09.921Z,95701.00
2023-06-30T01:18:09.934Z,95703.00
2023-06-30T01:19:09.897Z,95703.00
2023-06-30T01:20:09.910Z,95705.00
2023-06-30T01:21:09.889Z,95707.00
2023-06-30T01:22:09.887Z,95708.00
2023-06-30T01:23:09.901Z,95708.00
2023-06-30T01:24:09.878Z,95710.00
2023-06-30T01:25:08.862Z,95710.00
2023-06-30T01:26:09.908Z,95708.00
2023-06-30T01:27:08.864Z,95708.00
2023-06-30T01:28:09.860Z,95703.00
2023-06-30T01:29:08.844Z,95703.00
2023-06-30T01:30:08.831Z,95697.00
2023-06-30T01:31:09.939Z,95695.00
2023-06-30T01:32:09.819Z,95687.00
2023-06-30T01:33:08.854Z,95687.00
2023-06-30T01:34:09.848Z,95683.00
2023-06-30T01:35:08.803Z,95681.00
2023-06-30T01:36:08.811Z,95681.00
2023-06-30T01:37:08.777Z,95681.00
2023-06-30T01:38:09.793Z,95677.00
2023-06-30T01:39:09.770Z,95675.00
2023-06-30T01:40:09.793Z,95673.00
2023-06-30T01:41:09.779Z,95671.00
2023-06-30T01:42:09.742Z,95661.00
2023-06-30T01:43:09.753Z,95661.00
2023-06-30T01:44:08.745Z,95659.00
2023-06-30T01:45:08.721Z,95657.00
2023-06-30T01:46:09.782Z,95659.00
2023-06-30T01:47:09.709Z,95661.00
2023-06-30T01:48:08.704Z,95659.00
2023-06-30T01:49:09.716Z,95661.00
2023-06-30T01:50:09.717Z,95659.00
2023-06-30T01:51:09.679Z,95659.00
2023-06-30T01:52:08.693Z,95659.00
2023-06-30T01:53:09.715Z,95657.00
2023-06-30T01:54:09.670Z,95657.00
2023-06-30T01:55:08.658Z,95653.00
2023-06-30T01:56:09.659Z,95655.00
2023-06-30T01:57:08.645Z,95651.00
2023-06-30T01:58:08.664Z,95651.00
2023-06-30T01:59:08.635Z,95647.00
2023-06-30T02:00:08.626Z,95646.00
2023-06-30T02:01:09.640Z,95642.00
2023-06-30T02:02:08.671Z,95640.00
2023-06-30T02:03:09.707Z,95642.00
2023-06-30T02:04:09.601Z,95642.00
2023-06-30T02:05:09.669Z,95644.00
2023-06-30T02:06:08.600Z,95640.00
2023-06-30T02:07:09.613Z,95640.00
2023-06-30T02:08:09.595Z,95640.00
2023-06-30T02:09:09.584Z,95636.00
2023-06-30T02:10:08.577Z,95634.00
2023-06-30T02:11:09.538Z,95632.00
2023-06-30T02:12:08.545Z,95632.00
2023-06-30T02:13:08.520Z,95634.00
2023-06-30T02:14:08.536Z,95634.00
2023-06-30T02:15:08.511Z,95634.00
2023-06-30T02:16:08.601Z,95634.00
2023-06-30T02:17:08.513Z,95632.00
2023-06-30T02:18:08.492Z,95632.00
2023-06-30T02:19:09.486Z,95632.00
2023-06-30T02:20:09.502Z,95634.00
2023-06-30T02:21:09.469Z,95636.00
2023-06-30T02:22:08.488Z,95638.00
2023-06-30T02:23:08.475Z,95640.00
2023-06-30T02:24:09.451Z,95640.00
2023-06-30T02:25:09.463Z,95640.00
2023-06-30T02:26:09.438Z,95644.00
2023-06-30T02:27:08.448Z,95644.00
2023-06-30T02:28:09.442Z,95640.00
2023-06-30T02:29:09.430Z,95640.00
2023-06-30T02:30:08.413Z,95640.00
2023-06-30T02:31:08.516Z,95644.00
2023-06-30T02:32:08.437Z,95646.00
2023-06-30T02:33:09.438Z,95647.00
2023-06-30T02:34:08.471Z,95646.00
2023-06-30T02:35:08.618Z,95644.00
2023-06-30T02:36:09.491Z,95644.00
2023-06-30T02:37:08.494Z,95642.00
2023-06-30T02:38:09.532Z,95638.00
2023-06-30T02:39:08.542Z,95638.00
2023-06-30T02:40:09.555Z,95638.00
2023-06-30T02:41:08.577Z,95636.00
2023-06-30T02:42:08.580Z,95636.00
2023-06-30T02:43:09.597Z,95632.00
2023-06-30T02:44:08.625Z,95630.00
2023-06-30T02:45:08.604Z,95626.00
2023-06-30T02:46:09.655Z,95622.00
2023-06-30T02:47:09.653Z,95618.00
2023-06-30T02:48:09.659Z,95618.00
2023-06-30T02:49:09.657Z,95616.00
2023-06-30T02:50:09.681Z,95616.00
2023-06-30T02:51:09.692Z,95614.00
2023-06-30T02:52:08.691Z,95614.00
2023-06-30T02:53:08.680Z,95612.00
2023-06-30T02:54:09.736Z,95608.00
2023-06-30T02:55:09.714Z,95610.00
2023-06-30T02:56:09.717Z,95610.00
2023-06-30T02:57:08.744Z,95610.00
2023-06-30T02:58:09.789Z,95608.00
2023-06-30T02:59:09.784Z,95614.00
2023-06-30T03:00:09.818Z,95616.00
2023-06-30T03:01:08.858Z,95616.00
2023-06-30T03:02:08.982Z,95622.00
2023-06-30T03:03:08.904Z,95622.00
2023-06-30T03:04:09.972Z,95626.00
2023-06-30T03:05:09.881Z,95626.00
2023-06-30T03:06:08.894Z,95624.00
2023-06-30T03:07:09.945Z,95624.00
2023-06-30T03:08:08.882Z,95626.00
2023-06-30T03:09:09.905Z,95624.00
2023-06-30T03:10:09.955Z,95624.00
2023-06-30T03:11:09.957Z,95622.00
2023-06-30T03:12:09.947Z,95626.00
2023-06-30T03:13:08.965Z,95620.00
2023-06-30T03:14:09.978Z,95620.00
2023-06-30T03:15:08.990Z,95620.00
2023-06-30T03:16:08.991Z,95624.00
2023-06-30T03:17:10.068Z,95620.00
2023-06-30T03:18:09.079Z,95620.00
2023-06-30T03:19:09.056Z,95622.00
2023-06-30T03:20:10.051Z,95620.00
2023-06-30T03:21:09.050Z,95622.00
2023-06-30T03:22:09.076Z,95624.00
2023-06-30T03:23:10.100Z,95622.00
2023-06-30T03:24:10.106Z,95622.00
2023-06-30T03:25:10.120Z,95618.00
2023-06-30T03:26:10.147Z,95616.00
2023-06-30T03:27:09.156Z,95618.00
2023-06-30T03:28:09.156Z,95616.00
2023-06-30T03:29:10.175Z,95618.00
2023-06-30T03:30:09.228Z,95618.00
2023-06-30T03:31:09.272Z,95616.00
2023-06-30T03:32:10.201Z,95610.00
2023-06-30T03:33:10.226Z,95608.00
2023-06-30T03:34:09.264Z,95608.00
2023-06-30T03:35:10.261Z,95608.00
2023-06-30T03:36:10.296Z,95610.00
2023-06-30T03:37:10.293Z,95610.00
2023-06-30T03:38:10.330Z,95610.00
2023-06-30T03:39:10.346Z,95608.00
2023-06-30T03:40:10.367Z,95608.00
2023-06-30T03:41:10.471Z,95606.00
2023-06-30T03:42:09.432Z,95606.00
2023-06-30T03:43:10.426Z,95604.00
2023-06-30T03:44:10.441Z,95606.00
2023-06-30T03:45:10.457Z,95606.00
2023-06-30T03:46:09.508Z,95604.00
2023-06-30T03:47:10.488Z,95606.00
2023-06-30T03:48:10.520Z,95610.00
2023-06-30T03:49:09.525Z,95606.00
2023-06-30T03:50:10.545Z,95608.00
2023-06-30T03:51:10.551Z,95604.00
2023-06-30T03:52:10.569Z,95606.00
2023-06-30T03:53:10.688Z,95604.00
2023-06-30T03:54:10.175Z,95604.00
2023-06-30T03:55:09.620Z,95602.00
2023-06-30T03:56:09.708Z,95602.00
2023-06-30T03:57:10.658Z,95600.00
2023-06-30T03:58:09.682Z,95599.00
2023-06-30T03:59:10.685Z,95597.00
2023-06-30T04:00:10.717Z,95597.00
2023-06-30T04:01:09.696Z,95595.00
2023-06-30T04:02:09.711Z,95591.00
2023-06-30T04:03:10.892Z,95591.00
2023-06-30T04:04:10.934Z,95591.00
2023-06-30T04:05:10.902Z,95591.00
2023-06-30T04:06:09.789Z,95593.00
2023-06-30T04:07:10.874Z,95591.00
2023-06-30T04:08:09.942Z,95589.00
2023-06-30T04:09:09.850Z,95593.00
2023-06-30T04:10:10.843Z,95587.00
2023-06-30T04:11:09.861Z,95589.00
2023-06-30T04:12:09.880Z,95589.00
2023-06-30T04:13:10.898Z,95587.00
2023-06-30T04:14:09.953Z,95587.00
2023-06-30T04:15:10.922Z,95585.00
2023-06-30T04:16:10.947Z,95583.00
2023-06-30T04:17:09.964Z,95581.00
2023-06-30T04:18:10.044Z,95581.00
2023-06-30T04:19:10.977Z,95581.00
2023-06-30T04:20:11.151Z,95581.00
2023-06-30T04:21:11.024Z,95581.00
2023-06-30T04:22:11.019Z,95577.00
2023-06-30T04:23:11.041Z,95577.00
2023-06-30T04:24:10.092Z,95575.00
2023-06-30T04:25:11.080Z,95575.00
2023-06-30T04:26:11.090Z,95575.00
2023-06-30T04:27:11.112Z,95573.00
2023-06-30T04:28:11.139Z,95575.00
2023-06-30T04:29:10.176Z,95577.00
2023-06-30T04:30:11.195Z,95577.00
2023-06-30T04:31:11.183Z,95575.00
2023-06-30T04:32:10.259Z,95571.00
2023-06-30T04:33:11.228Z,95571.00
2023-06-30T04:34:11.244Z,95569.00
2023-06-30T04:35:11.268Z,95567.00
2023-06-30T04:36:11.287Z,95565.00
2023-06-30T04:37:11.290Z,95567.00
2023-06-30T04:38:10.296Z,95569.00
2023-06-30T04:39:11.362Z,95567.00
2023-06-30T04:40:11.331Z,95567.00
2023-06-30T04:41:10.351Z,95565.00
2023-06-30T04:42:10.398Z,95565.00
2023-06-30T04:43:11.392Z,95565.00
2023-06-30T04:44:11.410Z,95565.00
2023-06-30T04:45:11.418Z,95563.00
2023-06-30T04:46:11.494Z,95563.00
2023-06-30T04:47:10.481Z,95561.00
2023-06-30T04:48:10.507Z,95563.00
2023-06-30T04:49:11.465Z,95561.00
2023-06-30T04:50:11.485Z,95565.00
2023-06-30T04:51:10.499Z,95563.00
2023-06-30T04:52:11.508Z,95559.00
2023-06-30T04:53:11.527Z,95555.00
2023-06-30T04:54:10.561Z,95553.00
2023-06-30T04:55:11.577Z,95552.00
2023-06-30T04:56:11.578Z,95552.00
2023-06-30T04:57:11.601Z,95552.00
2023-06-30T04:58:11.609Z,95553.00
2023-06-30T04:59:11.627Z,95557.00
2023-06-30T05:00:10.683Z,95557.00
2023-06-30T05:01:10.690Z,95555.00
2023-06-30T05:02:10.687Z,95555.00
2023-06-30T05:03:11.823Z,95552.00
2023-06-30T05:04:10.710Z,95552.00
2023-06-30T05:05:11.705Z,95550.00
2023-06-30T05:06:11.729Z,95550.00
2023-06-30T05:07:11.765Z,95550.00
2023-06-30T05:08:10.745Z,95550.00
2023-06-30T05:09:10.767Z,95548.00
2023-06-30T05:10:11.775Z,95548.00
2023-06-30T05:11:11.780Z,95548.00
2023-06-30T05:12:10.816Z,95548.00
2023-06-30T05:13:11.801Z,95552.00
2023-06-30T05:14:10.808Z,95552.00
2023-06-30T05:15:11.824Z,95552.00
2023-06-30T05:16:10.945Z,95555.00
2023-06-30T05:17:11.931Z,95550.00
2023-06-30T05:18:10.965Z,95552.00
2023-06-30T05:19:11.914Z,95548.00
2023-06-30T05:20:11.920Z,95546.00
2023-06-30T05:21:11.955Z,95548.00
2023-06-30T05:22:11.930Z,95553.00
2023-06-30T05:23:11.941Z,95553.00
2023-06-30T05:24:12.001Z,95552.00
2023-06-30T05:25:11.981Z,95550.00
2023-06-30T05:26:11.000Z,95548.00
2023-06-30T05:27:10.995Z,95550.00
2023-06-30T05:28:11.002Z,95546.00
2023-06-30T05:29:12.028Z,95546.00
2023-06-30T05:30:11.060Z,95542.00
2023-06-30T05:31:12.056Z,95536.00
2023-06-30T05:32:12.049Z,95532.00
2023-06-30T05:33:11.069Z,95528.00
2023-06-30T05:34:11.101Z,95528.00
2023-06-30T05:35:12.106Z,95524.00
2023-06-30T05:36:11.101Z,95522.00
2023-06-30T05:37:12.097Z,95526.00
2023-06-30T05:38:12.095Z,95524.00
2023-06-30T05:39:12.133Z,95524.00
2023-06-30T05:40:12.121Z,95524.00
2023-06-30T05:41:11.135Z,95524.00
2023-06-30T05:42:12.150Z,95526.00
2023-06-30T05:43:12.144Z,95528.00
2023-06-30T05:44:12.230Z,95526.00
2023-06-30T05:45:11.157Z,95528.00
2023-06-30T05:46:12.189Z,95528.00
2023-06-30T05:47:11.172Z,95530.00
2023-06-30T05:48:11.205Z,95528.00
2023-06-30T05:49:11.195Z,95528.00
2023-06-30T05:50:11.216Z,95526.00
2023-06-30T05:51:11.204Z,95526.00
2023-06-30T05:52:12.210Z,95526.00
2023-06-30T05:53:11.224Z,95526.00
2023-06-30T05:54:12.246Z,95526.00
2023-06-30T05:55:12.247Z,95528.00
2023-06-30T05:56:11.223Z,95528.00
2023-06-30T05:57:12.239Z,95528.00
2023-06-30T05:58:12.263Z,95530.00
2023-06-30T05:59:11.254Z,95532.00
2023-06-30T06:00:11.279Z,95532.00
2023-06-30T06:01:12.273Z,95538.00
2023-06-30T06:02:12.270Z,95542.00
2023-06-30T06:03:12.591Z,95546.00
2023-06-30T06:04:11.456Z,95548.00
2023-06-30T06:05:11.398Z,95550.00
2023-06-30T06:06:11.312Z,95550.00
2023-06-30T06:07:11.306Z,95552.00
2023-06-30T06:08:11.286Z,95555.00
2023-06-30T06:09:12.299Z,95557.00
2023-06-30T06:10:12.302Z,95557.00
2023-06-30T06:11:12.304Z,95559.00
2023-06-30T06:12:11.296Z,95559.00
2023-06-30T06:13:11.305Z,95559.00
2023-06-30T06:14:12.296Z,95559.00
2023-06-30T06:15:11.313Z,95559.00
2023-06-30T06:16:11.331Z,95557.00
2023-06-30T06:17:12.319Z,95557.00
2023-06-30T06:18:12.341Z,95555.00
2023-06-30T06:19:11.335Z,95555.00
2023-06-30T06:20:12.323Z,95557.00
2023-06-30T06:21:11.350Z,95555.00
2023-06-30T06:22:11.378Z,95557.00
2023-06-30T06:23:12.354Z,95557.00
2023-06-30T06:24:12.372Z,95557.00
2023-06-30T06:25:12.347Z,95559.00
2023-06-30T06:26:11.366Z,95559.00
2023-06-30T06:27:12.368Z,95557.00
2023-06-30T06:28:12.357Z,95561.00
2023-06-30T06:29:11.378Z,95559.00
2023-06-30T06:30:11.404Z,95559.00
2023-06-30T06:31:11.439Z,95563.00
2023-06-30T06:32:12.374Z,95559.00
2023-06-30T06:33:12.394Z,95557.00
2023-06-30T06:34:12.403Z,95557.00
2023-06-30T06:35:12.394Z,95557.00
2023-06-30T06:36:12.416Z,95557.00
2023-06-30T06:37:12.407Z,95557.00
2023-06-30T06:38:12.461Z,95557.00
2023-06-30T06:39:12.403Z,95559.00
2023-06-30T06:40:12.400Z,95561.00
2023-06-30T06:41:11.405Z,95561.00
2023-06-30T06:42:12.440Z,95563.00
2023-06-30T06:43:12.424Z,95565.00
2023-06-30T06:44:12.439Z,95561.00
2023-06-30T06:45:12.401Z,95563.00
2023-06-30T06:46:12.476Z,95563.00
2023-06-30T06:47:12.436Z,95559.00
2023-06-30T06:48:12.434Z,95561.00
2023-06-30T06:49:12.434Z,95561.00
2023-06-30T06:50:12.407Z,95557.00
2023-06-30T06:51:12.402Z,95559.00
2023-06-30T06:52:12.411Z,95559.00
2023-06-30T06:53:12.410Z,95559.00
2023-06-30T06:54:12.437Z,95559.00
2023-06-30T06:55:11.406Z,95557.00
2023-06-30T06:56:11.398Z,95559.00
2023-06-30T06:57:12.397Z,95561.00
2023-06-30T06:58:11.414Z,95561.00
2023-06-30T06:59:11.406Z,95557.00
2023-06-30T07:00:12.440Z,95557.00
2023-06-30T07:01:12.393Z,95555.00
2023-06-30T07:02:12.500Z,95555.00
2023-06-30T07:03:11.420Z,95555.00
2023-06-30T07:04:11.565Z,95553.00
2023-06-30T07:05:12.400Z,95555.00
2023-06-30T07:06:11.431Z,95557.00
2023-06-30T07:07:12.437Z,95557.00
2023-06-30T07:08:11.399Z,95557.00
2023-06-30T07:09:11.409Z,95557.00
2023-06-30T07:10:12.434Z,95559.00
2023-06-30T07:11:12.418Z,95559.00
2023-06-30T07:12:11.447Z,95561.00
2023-06-30T07:13:11.426Z,95561.00
2023-06-30T07:14:12.410Z,95561.00
2023-06-30T07:15:12.417Z,95561.00
2023-06-30T07:16:11.505Z,95561.00
2023-06-30T07:17:11.434Z,95561.00
2023-06-30T07:18:11.503Z,95561.00
2023-06-30T07:19:12.428Z,95561.00
2023-06-30T07:20:11.426Z,95561.00
2023-06-30T07:21:11.441Z,95561.00
2023-06-30T07:22:12.449Z,95561.00
2023-06-30T07:23:12.429Z,95559.00
2023-06-30T07:24:12.449Z,95557.00
2023-06-30T07:25:12.419Z,95559.00
2023-06-30T07:26:11.438Z,95559.00
2023-06-30T07:27:11.409Z,95561.00
2023-06-30T07:28:12.409Z,95561.00
2023-06-30T07:29:12.418Z,95561.00
2023-06-30T07:30:11.435Z,95559.00
2023-06-30T07:31:12.434Z,95561.00
2023-06-30T07:32:12.406Z,95559.00
2023-06-30T07:33:11.416Z,95559.00
2023-06-30T07:34:12.414Z,95559.00
2023-06-30T07:35:12.418Z,95559.00
2023-06-30T07:36:12.441Z,95561.00
2023-06-30T07:37:12.397Z,95563.00
2023-06-30T07:38:12.413Z,95563.00
2023-06-30T07:39:12.415Z,95565.00
2023-06-30T07:40:16.640Z,95563.00
2023-06-30T07:41:12.477Z,95565.00
2023-06-30T07:42:12.431Z,95561.00
2023-06-30T07:43:11.381Z,95563.00
2023-06-30T07:44:12.374Z,95563.00
2023-06-30T07:45:11.361Z,95565.00
2023-06-30T07:46:12.434Z,95563.00
2023-06-30T07:47:12.356Z,95565.00
2023-06-30T07:48:11.472Z,95565.00
2023-06-30T07:49:12.368Z,95567.00
2023-06-30T07:50:12.319Z,95567.00
2023-06-30T07:51:12.323Z,95569.00
2023-06-30T07:52:11.306Z,95567.00
2023-06-30T07:53:11.305Z,95569.00
2023-06-30T07:54:12.314Z,95573.00
2023-06-30T07:55:11.292Z,95573.00
2023-06-30T07:56:12.279Z,95573.00
2023-06-30T07:57:12.276Z,95573.00
2023-06-30T07:58:12.308Z,95573.00
2023-06-30T07:59:12.277Z,95573.00
2023-06-30T08:00:11.298Z,95575.00
2023-06-30T08:01:11.259Z,95577.00
2023-06-30T08:02:12.255Z,95575.00
2023-06-30T08:03:12.355Z,95579.00
2023-06-30T08:04:11.448Z,95583.00
2023-06-30T08:05:12.378Z,95585.00
2023-06-30T08:06:11.413Z,95585.00
2023-06-30T08:07:12.230Z,95585.00
2023-06-30T08:08:12.205Z,95583.00
2023-06-30T08:09:11.205Z,95581.00
2023-06-30T08:10:12.202Z,95577.00
2023-06-30T08:11:12.198Z,95575.00
2023-06-30T08:12:12.205Z,95573.00
2023-06-30T08:13:12.200Z,95575.00
2023-06-30T08:14:11.193Z,95573.00
2023-06-30T08:15:11.175Z,95573.00
2023-06-30T08:16:12.157Z,95575.00
2023-06-30T08:17:12.170Z,95575.00
2023-06-30T08:18:12.228Z,95577.00
2023-06-30T08:19:44.750Z,95577.00
2023-06-30T08:20:12.220Z,95579.00
2023-06-30T08:21:12.119Z,95579.00
2023-06-30T08:22:12.169Z,95577.00
2023-06-30T08:23:11.096Z,95577.00
2023-06-30T08:24:12.116Z,95575.00
2023-06-30T08:25:11.100Z,95575.00
2023-06-30T08:26:12.100Z,95573.00
2023-06-30T08:27:11.087Z,95577.00
2023-06-30T08:28:12.100Z,95577.00
2023-06-30T08:29:12.058Z,95575.00
2023-06-30T08:30:11.090Z,95575.00
2023-06-30T08:31:12.125Z,95577.00
2023-06-30T08:32:11.034Z,95579.00
2023-06-30T08:33:13.922Z,95577.00
2023-06-30T08:34:12.024Z,95581.00
2023-06-30T08:35:12.035Z,95577.00
2023-06-30T08:36:12.024Z,95577.00
2023-06-30T08:37:11.014Z,95575.00
2023-06-30T08:38:11.019Z,95575.00
2023-06-30T08:39:12.005Z,95577.00
2023-06-30T08:40:11.984Z,95575.00
2023-06-30T08:41:10.996Z,95577.00
2023-06-30T08:42:11.984Z,95577.00
2023-06-30T08:43:11.972Z,95575.00
2023-06-30T08:44:11.968Z,95577.00
2023-06-30T08:45:11.958Z,95577.00
2023-06-30T08:46:12.028Z,95581.00
2023-06-30T08:47:11.962Z,95581.00
2023-06-30T08:48:10.936Z,95581.00
2023-06-30T08:49:11.934Z,95583.00
2023-06-30T08:50:11.959Z,95581.00
2023-06-30T08:51:11.915Z,95583.00
2023-06-30T08:52:10.915Z,95581.00
2023-06-30T08:53:10.893Z,95581.00
2023-06-30T08:54:11.914Z,95579.00
2023-06-30T08:55:11.923Z,95577.00
2023-06-30T08:56:10.880Z,95579.00
2023-06-30T08:57:11.882Z,95581.00
2023-06-30T08:58:21.094Z,95581.00
2023-06-30T08:59:11.866Z,95583.00
2023-06-30T09:00:10.857Z,95583.00
2023-06-30T09:01:11.888Z,95585.00
2023-06-30T09:02:11.941Z,95583.00
2023-06-30T09:03:10.935Z,95583.00
2023-06-30T09:04:11.982Z,95581.00
2023-06-30T09:05:11.926Z,95579.00
2023-06-30T09:06:10.816Z,95577.00
2023-06-30T09:07:10.893Z,95581.00
2023-06-30T09:08:10.811Z,95579.00
2023-06-30T09:09:11.799Z,95579.00
2023-06-30T09:10:11.791Z,95579.00
2023-06-30T09:11:11.790Z,95581.00
2023-06-30T09:12:11.774Z,95581.00
2023-06-30T09:13:10.800Z,95581.00
2023-06-30T09:14:10.754Z,95581.00
2023-06-30T09:15:10.756Z,95581.00
2023-06-30T09:16:10.779Z,95581.00
2023-06-30T09:17:10.751Z,95579.00
2023-06-30T09:18:11.866Z,95577.00
2023-06-30T09:19:10.781Z,95575.00
2023-06-30T09:20:10.735Z,95575.00
2023-06-30T09:21:10.728Z,95577.00
2023-06-30T09:22:51.896Z,95577.00
2023-06-30T09:23:11.730Z,95581.00
2023-06-30T09:24:11.717Z,95583.00
2023-06-30T09:25:11.810Z,95581.00
2023-06-30T09:26:11.783Z,95581.00
2023-06-30T09:27:10.711Z,95581.00
2023-06-30T09:28:11.697Z,95583.00
2023-06-30T09:29:10.673Z,95585.00
2023-06-30T09:30:10.690Z,95589.00
2023-06-30T09:31:10.683Z,95589.00
2023-06-30T09:32:11.698Z,95585.00
2023-06-30T09:33:10.715Z,95585.00
2023-06-30T09:34:11.703Z,95583.00
2023-06-30T09:35:10.671Z,95583.00
2023-06-30T09:36:11.638Z,95589.00
2023-06-30T09:37:12.556Z,95583.00
2023-06-30T09:38:11.633Z,95585.00
2023-06-30T09:39:10.622Z,95587.00
2023-06-30T09:40:11.644Z,95585.00
2023-06-30T09:41:10.610Z,95585.00
2023-06-30T09:42:11.606Z,95587.00
2023-06-30T09:43:11.638Z,95587.00
2023-06-30T09:44:10.588Z,95587.00
2023-06-30T09:45:11.594Z,95593.00
2023-06-30T09:46:11.590Z,95591.00
2023-06-30T09:47:10.571Z,95591.00
2023-06-30T09:48:11.564Z,95587.00
2023-06-30T09:49:11.588Z,95585.00
2023-06-30T09:50:11.727Z,95585.00
2023-06-30T09:51:10.546Z,95583.00
2023-06-30T09:52:11.541Z,95581.00
2023-06-30T09:53:11.532Z,95579.00
2023-06-30T09:54:11.525Z,95579.00
2023-06-30T09:55:11.558Z,95577.00
2023-06-30T09:56:10.505Z,95575.00
2023-06-30T09:57:10.513Z,95575.00
2023-06-30T09:58:10.501Z,95573.00
2023-06-30T09:59:10.503Z,95569.00
2023-06-30T10:00:21.829Z,95569.00
2023-06-30T10:01:11.536Z,95565.00
2023-06-30T10:02:10.483Z,95561.00
2023-06-30T10:03:10.530Z,95561.00
2023-06-30T10:04:10.473Z,95561.00
2023-06-30T10:05:10.527Z,95557.00
2023-06-30T10:06:11.489Z,95557.00
2023-06-30T10:07:11.492Z,95552.00
2023-06-30T10:08:11.437Z,95552.00
2023-06-30T10:09:11.443Z,95553.00
2023-06-30T10:10:10.429Z,95553.00
2023-06-30T10:11:11.456Z,95548.00
2023-06-30T10:12:10.421Z,95548.00
2023-06-30T10:13:11.413Z,95546.00
2023-06-30T10:14:11.411Z,95546.00
2023-06-30T10:15:11.405Z,95553.00
2023-06-30T10:16:11.375Z,95546.00
2023-06-30T10:17:10.442Z,95552.00
2023-06-30T10:18:10.382Z,95552.00
2023-06-30T10:19:10.368Z,95553.00
2023-06-30T10:20:10.467Z,95553.00
2023-06-30T10:21:11.363Z,95553.00
2023-06-30T10:22:11.376Z,95552.00
2023-06-30T10:23:11.336Z,95552.00
2023-06-30T10:24:10.328Z,95552.00
2023-06-30T10:25:11.337Z,95552.00
2023-06-30T10:26:11.336Z,95552.00
2023-06-30T10:27:11.329Z,95553.00
2023-06-30T10:28:11.313Z,95553.00
2023-06-30T10:29:11.303Z,95552.00
2023-06-30T10:30:10.434Z,95550.00
2023-06-30T10:31:11.282Z,95548.00
2023-06-30T10:32:11.288Z,95550.00
2023-06-30T10:33:11.361Z,95548.00
2023-06-30T10:34:11.282Z,95548.00
2023-06-30T10:35:11.287Z,95546.00
2023-06-30T10:36:11.269Z,95548.00
2023-06-30T10:37:10.247Z,95546.00
2023-06-30T10:38:10.263Z,95546.00
2023-06-30T10:39:10.238Z,95546.00
2023-06-30T10:40:11.246Z,95546.00
2023-06-30T10:41:10.227Z,95544.00
2023-06-30T10:42:11.237Z,95544.00
2023-06-30T10:43:10.220Z,95540.00
2023-06-30T10:44:11.246Z,95546.00
2023-06-30T10:45:10.205Z,95546.00
2023-06-30T10:46:12.553Z,95546.00
2023-06-30T10:47:11.238Z,95548.00
2023-06-30T10:48:11.186Z,95544.00
2023-06-30T10:49:11.181Z,95544.00
2023-06-30T10:50:10.166Z,95550.00
2023-06-30T10:51:11.182Z,95544.00
2023-06-30T10:52:10.158Z,95548.00
2023-06-30T10:53:10.144Z,95546.00
2023-06-30T10:54:11.183Z,95546.00
2023-06-30T10:55:10.152Z,95540.00
2023-06-30T10:56:11.139Z,95536.00
2023-06-30T10:57:10.163Z,95536.00
2023-06-30T10:58:10.133Z,95540.00
2023-06-30T10:59:11.123Z,95540.00
2023-06-30T11:00:11.118Z,95540.00
2023-06-30T11:01:10.102Z,95540.00
2023-06-30T11:02:10.101Z,95534.00
2023-06-30T11:03:11.316Z,95532.00
2023-06-30T11:04:11.280Z,95534.00
2023-06-30T11:05:11.207Z,95534.00
2023-06-30T11:06:11.068Z,95534.00
2023-06-30T11:07:11.095Z,95534.00
2023-06-30T11:08:10.055Z,95540.00
2023-06-30T11:09:11.069Z,95534.00
2023-06-30T11:10:10.073Z,95536.00
2023-06-30T11:11:10.032Z,95536.00
2023-06-30T11:12:11.038Z,95530.00
2023-06-30T11:13:10.013Z,95530.00
2023-06-30T11:14:10.032Z,95536.00
2023-06-30T11:15:10.055Z,95528.00
2023-06-30T11:16:10.993Z,95534.00
2023-06-30T11:17:10.989Z,95528.00
2023-06-30T11:18:11.099Z,95526.00
2023-06-30T11:19:10.041Z,95528.00
2023-06-30T11:20:10.991Z,95532.00
2023-06-30T11:21:10.988Z,95526.00
2023-06-30T11:22:09.976Z,95534.00
2023-06-30T11:23:09.960Z,95528.00
2023-06-30T11:24:11.069Z,95534.00
2023-06-30T11:25:11.107Z,95530.00
2023-06-30T11:26:10.145Z,95530.00
2023-06-30T11:27:11.099Z,95534.00
2023-06-30T11:28:11.046Z,95534.00
2023-06-30T11:29:11.045Z,95534.00
2023-06-30T11:30:10.119Z,95534.00
2023-06-30T11:31:10.096Z,95534.00
2023-06-30T11:32:10.038Z,95530.00
2023-06-30T11:33:11.061Z,95534.00
2023-06-30T11:34:11.031Z,95530.00
2023-06-30T11:35:11.026Z,95532.00
2023-06-30T11:36:10.030Z,95528.00
2023-06-30T11:37:11.039Z,95526.00
2023-06-30T11:38:10.024Z,95526.00
2023-06-30T11:39:10.020Z,95530.00
2023-06-30T11:40:10.005Z,95522.00
2023-06-30T11:41:10.006Z,95528.00
2023-06-30T11:42:11.034Z,95528.00
2023-06-30T11:43:09.999Z,95526.00
2023-06-30T11:44:09.990Z,95524.00